Terminal Aerodrome Forecast
Issued by NWS

Home | Current Version | Previous Version | Text Only | Print | Product List | Glossary On
Versions: 1 2 3 4 5 6 7 8 9 10 11 12 13 14 15 16 17 18 19 20 21
551
FTUS43 KDLH 192328
TAFHYR
TAF
KHYR 192328Z 2000/2024 15009G15KT P6SM SCT040
     FM200500 15012KT P6SM BKN050 WS020/16050KT
     FM200900 15011KT 4SM -SHRA VCTS OVC060CB WS020/17050KT
     FM201100 15010KT 5SM BR VCSH OVC025 WS020/18050KT
     FM201200 16010KT P6SM OVC010 WS020/18045KT
     FM201600 19010G18KT P6SM BKN010
     FM201700 22009KT P6SM BKN015
     FM201900 25009KT P6SM BKN050=

USA.gov is the U.S. government's official web portal to all federal, state and local government web resources and services.